createdAt,value
2022-08-04T00:05:41.012Z,20.3
2022-08-04T00:15:43.391Z,20.2
2022-08-04T00:25:45.137Z,20.1
2022-08-04T00:35:47.092Z,20.1
2022-08-04T00:55:51.612Z,19.9
2022-08-04T01:05:53.684Z,19.9
2022-08-04T01:16:00.292Z,19.9
2022-08-04T01:25:57.993Z,19.8
2022-08-04T01:36:00.655Z,19.8
2022-08-04T01:46:02.274Z,19.8
2022-08-04T01:56:04.281Z,19.6
2022-08-04T02:06:06.289Z,19.6
2022-08-04T02:16:08.776Z,19.6
2022-08-04T02:26:13.229Z,19.5
2022-08-04T02:36:13.056Z,19.3
2022-08-04T02:46:17.545Z,19.3
2022-08-04T02:56:16.609Z,19.5
2022-08-04T03:06:19.205Z,19.5
2022-08-04T03:16:21.477Z,19.3
2022-08-04T03:26:23.337Z,19.2
2022-08-04T03:36:29.976Z,19.1
2022-08-04T03:56:30.206Z,18.6
2022-08-04T04:16:33.676Z,18.4
2022-08-04T04:26:35.718Z,18.3
2022-08-04T04:36:37.700Z,18.4
2022-08-04T04:46:39.523Z,18.5
2022-08-04T04:56:41.303Z,18.7
2022-08-04T05:06:43.083Z,18.9
2022-08-04T05:16:45.625Z,19.2
2022-08-04T05:26:48.112Z,19.7
2022-08-04T05:36:49.958Z,20.3
2022-08-04T05:46:53.865Z,20.6
2022-08-04T05:56:53.806Z,21.1
2022-08-04T06:06:55.454Z,21.6
2022-08-04T06:16:57.907Z,22
2022-08-04T06:37:02.869Z,22.8
2022-08-04T06:57:07.681Z,24
2022-08-04T07:47:20.056Z,27.2
2022-08-04T07:57:21.233Z,27.7
2022-08-04T08:17:24.871Z,28.3
2022-08-04T08:27:27.026Z,28.7
2022-08-04T08:37:29.124Z,29.3
2022-08-04T08:57:33.353Z,29.7
2022-08-04T09:07:35.636Z,30.1
2022-08-04T09:17:37.833Z,30.3
2022-08-04T09:27:39.603Z,30.8
2022-08-04T09:57:46.415Z,32.1
2022-08-04T10:38:00.387Z,32.3
2022-08-04T11:08:01.813Z,32.6
2022-08-04T11:18:04.323Z,32.1
2022-08-04T11:28:06.662Z,32.4
2022-08-04T11:38:08.524Z,32.9
2022-08-04T11:48:10.741Z,32.2
2022-08-04T11:58:12.836Z,32.2
2022-08-04T12:08:15.321Z,32
2022-08-04T12:18:17.603Z,31.7
2022-08-04T12:28:19.620Z,31.4
2022-08-04T12:38:21.324Z,31
2022-08-04T12:48:23.295Z,30.5
2022-08-04T12:58:42.479Z,29.4
2022-08-04T13:08:27.552Z,29.1
2022-08-04T13:48:36.321Z,28.9
2022-08-04T14:08:40.435Z,29.3
2022-08-04T14:29:08.626Z,29.5
2022-08-04T14:38:46.525Z,30
2022-08-04T14:58:50.745Z,30.3
2022-08-04T15:08:52.565Z,30.1
2022-08-04T15:18:56.824Z,29.6
2022-08-04T15:28:56.848Z,29.2
2022-08-04T15:29:03.729Z,29.2
2022-08-04T15:39:05.702Z,29
2022-08-04T15:49:07.514Z,28.8
2022-08-04T15:59:09.611Z,28.7
2022-08-04T16:09:11.370Z,28.6
2022-08-04T16:19:13.134Z,28.5
2022-08-04T16:29:15.390Z,28
2022-08-04T16:49:19.874Z,27.6
2022-08-04T16:59:21.790Z,27.7
2022-08-04T17:09:28.250Z,28.2
2022-08-04T17:19:26.863Z,27.8
2022-08-04T17:29:42.360Z,27.5
2022-08-04T17:39:30.154Z,27.3
2022-08-04T18:09:57.484Z,26.1
2022-08-04T18:19:42.159Z,25.5
2022-08-04T18:29:39.770Z,25.1
2022-08-04T18:40:10.443Z,24.8
2022-08-04T18:50:32.452Z,24.7
2022-08-04T18:59:46.529Z,24.5
2022-08-04T19:09:51.685Z,24.2
2022-08-04T19:19:50.531Z,24
2022-08-04T19:29:52.345Z,23.8
2022-08-04T19:39:54.806Z,23.5
2022-08-04T19:50:03.518Z,23.2
2022-08-04T19:59:59.308Z,23.2
2022-08-04T20:10:04.150Z,23
2022-08-04T20:20:03.536Z,22.8
2022-08-04T20:30:14.167Z,22.6
2022-08-04T20:40:08.193Z,22.7
2022-08-04T20:50:10.807Z,22.6
2022-08-04T21:00:13.590Z,22.6
2022-08-04T21:10:15.207Z,22.5
2022-08-04T21:20:16.871Z,22.1
2022-08-04T21:30:23.883Z,21.9
2022-08-04T21:40:30.793Z,21.8
2022-08-04T21:50:23.847Z,21.7
2022-08-04T22:00:26.189Z,21.6
2022-08-04T22:10:32.459Z,21.6
2022-08-04T22:20:29.774Z,21.6
2022-08-04T22:30:33.409Z,21.5
2022-08-04T22:40:33.143Z,21.4
2022-08-04T22:50:35.165Z,21.3
2022-08-04T23:00:37.738Z,21.3
2022-08-04T23:10:39.842Z,21.2
2022-08-04T23:20:42.469Z,21
2022-08-04T23:40:50.155Z,20.3
2022-08-04T23:50:48.863Z,19.8
